sensor_id;sensor_type;location;lat;lon;timestamp;pressure;altitude;pressure_sealevel;temperature;humidity
57290;BME280;43523;53.022;-1.178;2022-10-16T00:00:18;99365.03;;;5.55;100.00
57290;BME280;43523;53.022;-1.178;2022-10-16T00:01:23;99365.55;;;5.50;100.00
57290;BME280;43523;53.022;-1.178;2022-10-16T00:02:26;99369.79;;;5.89;100.00
57290;BME280;43523;53.022;-1.178;2022-10-16T00:03:28;99366.34;;;5.70;100.00
57290;BME280;43523;53.022;-1.178;2022-10-16T00:04:31;99365.82;;;5.62;100.00
57290;BME280;43523;53.022;-1.178;2022-10-16T00:05:39;99370.47;;;5.91;100.00
57290;BME280;43523;53.022;-1.178;2022-10-16T00:06:41;99369.99;;;5.97;100.00
57290;BME280;43523;53.022;-1.178;2022-10-16T00:07:43;99361.87;;;5.72;100.00
57290;BME280;43523;53.022;-1.178;2022-10-16T00:08:47;99374.44;;;5.54;100.00
57290;BME280;43523;53.022;-1.178;2022-10-16T00:09:50;99375.93;;;5.82;100.00
57290;BME280;43523;53.022;-1.178;2022-10-16T00:10:52;99370.92;;;5.83;100.00
57290;BME280;43523;53.022;-1.178;2022-10-16T00:11:55;99369.09;;;6.13;100.00
57290;BME280;43523;53.022;-1.178;2022-10-16T00:12:57;99363.59;;;5.81;100.00
57290;BME280;43523;53.022;-1.178;2022-10-16T00:14:03;99364.96;;;5.75;100.00
57290;BME280;43523;53.022;-1.178;2022-10-16T00:15:07;99362.92;;;6.13;100.00
57290;BME280;43523;53.022;-1.178;2022-10-16T00:16:12;99358.97;;;5.82;100.00
57290;BME280;43523;53.022;-1.178;2022-10-16T00:17:19;99360.98;;;5.67;100.00
57290;BME280;43523;53.022;-1.178;2022-10-16T00:18:22;99362.58;;;5.84;100.00
57290;BME280;43523;53.022;-1.178;2022-10-16T00:19:24;99365.48;;;6.12;100.00
57290;BME280;43523;53.022;-1.178;2022-10-16T00:20:27;99362.34;;;6.20;100.00
57290;BME280;43523;53.022;-1.178;2022-10-16T00:21:33;99366.31;;;6.04;100.00
57290;BME280;43523;53.022;-1.178;2022-10-16T00:22:35;99357.99;;;6.16;100.00
57290;BME280;43523;53.022;-1.178;2022-10-16T00:23:39;99363.64;;;6.49;100.00
57290;BME280;43523;53.022;-1.178;2022-10-16T00:24:41;99362.56;;;5.78;100.00
57290;BME280;43523;53.022;-1.178;2022-10-16T00:25:44;99366.69;;;5.98;100.00
57290;BME280;43523;53.022;-1.178;2022-10-16T00:26:49;99364.54;;;5.77;100.00
57290;BME280;43523;53.022;-1.178;2022-10-16T00:27:52;99368.41;;;6.06;100.00
57290;BME280;43523;53.022;-1.178;2022-10-16T00:28:55;99367.56;;;6.22;100.00
57290;BME280;43523;53.022;-1.178;2022-10-16T00:29:57;99363.49;;;6.18;100.00
57290;BME280;43523;53.022;-1.178;2022-10-16T00:31:03;99371.17;;;6.11;100.00
57290;BME280;43523;53.022;-1.178;2022-10-16T00:32:05;99369.75;;;6.09;100.00
57290;BME280;43523;53.022;-1.178;2022-10-16T00:33:08;99362.95;;;6.41;100.00
57290;BME280;43523;53.022;-1.178;2022-10-16T00:34:10;99360.05;;;5.71;100.00
57290;BME280;43523;53.022;-1.178;2022-10-16T00:35:13;99361.45;;;5.97;100.00
57290;BME280;43523;53.022;-1.178;2022-10-16T00:36:17;99366.60;;;6.12;100.00
57290;BME280;43523;53.022;-1.178;2022-10-16T00:37:20;99355.19;;;6.17;100.00
57290;BME280;43523;53.022;-1.178;2022-10-16T00:38:23;99352.08;;;6.09;100.00
57290;BME280;43523;53.022;-1.178;2022-10-16T00:39:25;99359.64;;;6.00;100.00
57290;BME280;43523;53.022;-1.178;2022-10-16T00:40:28;99357.19;;;5.87;100.00
57290;BME280;43523;53.022;-1.178;2022-10-16T00:41:32;99357.16;;;6.12;100.00
57290;BME280;43523;53.022;-1.178;2022-10-16T00:42:35;99357.57;;;6.26;100.00
57290;BME280;43523;53.022;-1.178;2022-10-16T00:43:40;99363.26;;;6.40;100.00
57290;BME280;43523;53.022;-1.178;2022-10-16T00:44:47;99362.64;;;5.73;100.00
57290;BME280;43523;53.022;-1.178;2022-10-16T00:45:49;99367.31;;;6.14;100.00
57290;BME280;43523;53.022;-1.178;2022-10-16T00:46:52;99371.88;;;6.24;100.00
57290;BME280;43523;53.022;-1.178;2022-10-16T00:47:55;99378.78;;;5.55;100.00
57290;BME280;43523;53.022;-1.178;2022-10-16T00:49:01;99383.49;;;5.92;100.00
57290;BME280;43523;53.022;-1.178;2022-10-16T00:50:10;99388.57;;;6.24;100.00
57290;BME280;43523;53.022;-1.178;2022-10-16T00:51:14;99386.13;;;6.19;100.00
57290;BME280;43523;53.022;-1.178;2022-10-16T00:52:16;99394.51;;;6.15;100.00
57290;BME280;43523;53.022;-1.178;2022-10-16T00:53:19;99401.74;;;6.46;100.00
57290;BME280;43523;53.022;-1.178;2022-10-16T00:54:25;99401.39;;;6.09;100.00
57290;BME280;43523;53.022;-1.178;2022-10-16T00:55:33;99406.66;;;6.39;100.00
57290;BME280;43523;53.022;-1.178;2022-10-16T00:56:35;99415.13;;;6.48;100.00
57290;BME280;43523;53.022;-1.178;2022-10-16T00:57:39;99429.90;;;6.38;100.00
57290;BME280;43523;53.022;-1.178;2022-10-16T00:58:42;99415.62;;;5.87;100.00
57290;BME280;43523;53.022;-1.178;2022-10-16T00:59:46;99434.41;;;6.17;100.00
57290;BME280;43523;53.022;-1.178;2022-10-16T01:00:49;99428.31;;;6.42;100.00
57290;BME280;43523;53.022;-1.178;2022-10-16T01:01:52;99422.03;;;5.98;100.00
57290;BME280;43523;53.022;-1.178;2022-10-16T01:02:57;99437.43;;;6.29;100.00
57290;BME280;43523;53.022;-1.178;2022-10-16T01:04:00;99441.73;;;6.37;100.00
57290;BME280;43523;53.022;-1.178;2022-10-16T01:05:03;99427.01;;;6.28;100.00
57290;BME280;43523;53.022;-1.178;2022-10-16T01:06:19;99439.68;;;6.29;100.00
57290;BME280;43523;53.022;-1.178;2022-10-16T01:07:36;99429.32;;;6.01;100.00
57290;BME280;43523;53.022;-1.178;2022-10-16T01:08:51;99426.15;;;6.41;100.00
57290;BME280;43523;53.022;-1.178;2022-10-16T01:10:05;99433.16;;;6.43;100.00
57290;BME280;43523;53.022;-1.178;2022-10-16T01:11:14;99443.29;;;6.55;100.00
57290;BME280;43523;53.022;-1.178;2022-10-16T01:12:29;99441.64;;;6.42;100.00
57290;BME280;43523;53.022;-1.178;2022-10-16T01:13:41;99436.23;;;6.40;100.00
57290;BME280;43523;53.022;-1.178;2022-10-16T01:14:55;99434.41;;;6.10;100.00
57290;BME280;43523;53.022;-1.178;2022-10-16T01:16:04;99441.65;;;6.48;100.00
57290;BME280;43523;53.022;-1.178;2022-10-16T01:17:14;99444.18;;;6.36;100.00
57290;BME280;43523;53.022;-1.178;2022-10-16T01:18:26;99449.22;;;6.04;100.00
57290;BME280;43523;53.022;-1.178;2022-10-16T01:19:44;99441.40;;;6.86;100.00
57290;BME280;43523;53.022;-1.178;2022-10-16T01:20:57;99437.51;;;6.35;100.00
57290;BME280;43523;53.022;-1.178;2022-10-16T01:22:04;99431.24;;;6.44;100.00
57290;BME280;43523;53.022;-1.178;2022-10-16T01:23:21;99441.97;;;6.48;100.00
57290;BME280;43523;53.022;-1.178;2022-10-16T01:24:33;99450.91;;;6.48;100.00
57290;BME280;43523;53.022;-1.178;2022-10-16T01:25:58;99451.67;;;6.37;100.00
57290;BME280;43523;53.022;-1.178;2022-10-16T01:27:08;99447.27;;;6.57;100.00
57290;BME280;43523;53.022;-1.178;2022-10-16T01:28:12;99449.99;;;6.61;100.00
57290;BME280;43523;53.022;-1.178;2022-10-16T01:29:17;99448.01;;;6.37;100.00
57290;BME280;43523;53.022;-1.178;2022-10-16T01:30:23;99446.60;;;6.60;100.00
57290;BME280;43523;53.022;-1.178;2022-10-16T01:31:31;99438.07;;;6.61;100.00
57290;BME280;43523;53.022;-1.178;2022-10-16T01:32:39;99438.44;;;6.68;100.00
57290;BME280;43523;53.022;-1.178;2022-10-16T01:33:45;99439.04;;;6.25;100.00
57290;BME280;43523;53.022;-1.178;2022-10-16T01:34:52;99455.00;;;6.56;100.00
57290;BME280;43523;53.022;-1.178;2022-10-16T01:36:00;99443.08;;;6.21;100.00
57290;BME280;43523;53.022;-1.178;2022-10-16T01:37:07;99452.06;;;5.97;100.00
57290;BME280;43523;53.022;-1.178;2022-10-16T01:38:17;99445.26;;;6.17;100.00
57290;BME280;43523;53.022;-1.178;2022-10-16T01:39:24;99444.26;;;6.11;100.00
57290;BME280;43523;53.022;-1.178;2022-10-16T01:40:30;99447.55;;;6.56;100.00
57290;BME280;43523;53.022;-1.178;2022-10-16T01:41:38;99444.63;;;6.23;100.00
57290;BME280;43523;53.022;-1.178;2022-10-16T01:42:46;99458.58;;;5.99;100.00
57290;BME280;43523;53.022;-1.178;2022-10-16T01:43:55;99455.08;;;6.08;100.00
57290;BME280;43523;53.022;-1.178;2022-10-16T01:44:59;99461.79;;;6.13;100.00
57290;BME280;43523;53.022;-1.178;2022-10-16T01:46:03;99490.05;;;6.41;100.00
57290;BME280;43523;53.022;-1.178;2022-10-16T01:47:08;99474.04;;;6.26;100.00
57290;BME280;43523;53.022;-1.178;2022-10-16T01:48:14;99463.23;;;6.08;100.00
57290;BME280;43523;53.022;-1.178;2022-10-16T01:49:20;99464.24;;;6.37;100.00
57290;BME280;43523;53.022;-1.178;2022-10-16T01:50:24;99471.75;;;6.20;100.00
57290;BME280;43523;53.022;-1.178;2022-10-16T01:51:29;99466.97;;;5.99;100.00
57290;BME280;43523;53.022;-1.178;2022-10-16T01:52:35;99474.27;;;6.15;100.00
57290;BME280;43523;53.022;-1.178;2022-10-16T01:53:40;99465.18;;;6.16;100.00
57290;BME280;43523;53.022;-1.178;2022-10-16T01:54:47;99467.99;;;6.22;100.00
57290;BME280;43523;53.022;-1.178;2022-10-16T01:55:53;99471.15;;;6.06;100.00
57290;BME280;43523;53.022;-1.178;2022-10-16T01:56:58;99463.47;;;6.43;100.00
57290;BME280;43523;53.022;-1.178;2022-10-16T01:58:02;99462.94;;;6.37;100.00
57290;BME280;43523;53.022;-1.178;2022-10-16T01:59:11;99457.83;;;6.11;100.00
57290;BME280;43523;53.022;-1.178;2022-10-16T02:00:17;99451.10;;;6.42;100.00
57290;BME280;43523;53.022;-1.178;2022-10-16T02:01:24;99454.73;;;6.24;100.00
57290;BME280;43523;53.022;-1.178;2022-10-16T02:02:29;99459.07;;;6.41;100.00
57290;BME280;43523;53.022;-1.178;2022-10-16T02:03:33;99449.50;;;6.24;100.00
57290;BME280;43523;53.022;-1.178;2022-10-16T02:04:39;99456.82;;;6.12;100.00
57290;BME280;43523;53.022;-1.178;2022-10-16T02:05:47;99453.23;;;5.82;100.00
57290;BME280;43523;53.022;-1.178;2022-10-16T02:06:52;99454.39;;;5.97;100.00
57290;BME280;43523;53.022;-1.178;2022-10-16T02:07:54;99464.46;;;6.30;100.00
57290;BME280;43523;53.022;-1.178;2022-10-16T02:08:57;99464.33;;;6.16;100.00
57290;BME280;43523;53.022;-1.178;2022-10-16T02:10:00;99483.60;;;6.72;100.00
57290;BME280;43523;53.022;-1.178;2022-10-16T02:11:03;99473.23;;;6.51;100.00
57290;BME280;43523;53.022;-1.178;2022-10-16T02:12:11;99469.26;;;6.39;100.00
57290;BME280;43523;53.022;-1.178;2022-10-16T02:13:20;99469.19;;;6.11;100.00
57290;BME280;43523;53.022;-1.178;2022-10-16T02:14:24;99484.58;;;6.11;100.00
57290;BME280;43523;53.022;-1.178;2022-10-16T02:15:27;99489.75;;;5.89;100.00
57290;BME280;43523;53.022;-1.178;2022-10-16T02:16:34;99497.02;;;6.24;100.00
57290;BME280;43523;53.022;-1.178;2022-10-16T02:17:39;99472.70;;;6.11;100.00
57290;BME280;43523;53.022;-1.178;2022-10-16T02:18:43;99484.98;;;5.88;100.00
57290;BME280;43523;53.022;-1.178;2022-10-16T02:19:49;99485.41;;;5.66;100.00
57290;BME280;43523;53.022;-1.178;2022-10-16T02:20:57;99487.10;;;5.70;100.00
57290;BME280;43523;53.022;-1.178;2022-10-16T02:22:03;99485.93;;;5.22;100.00
57290;BME280;43523;53.022;-1.178;2022-10-16T02:23:12;99483.37;;;5.95;100.00
57290;BME280;43523;53.022;-1.178;2022-10-16T02:24:24;99504.51;;;5.98;100.00
57290;BME280;43523;53.022;-1.178;2022-10-16T02:25:32;99493.66;;;6.14;100.00
57290;BME280;43523;53.022;-1.178;2022-10-16T02:26:40;99493.11;;;5.95;100.00
57290;BME280;43523;53.022;-1.178;2022-10-16T02:27:49;99493.77;;;5.47;100.00
57290;BME280;43523;53.022;-1.178;2022-10-16T02:28:58;99497.61;;;5.60;100.00
57290;BME280;43523;53.022;-1.178;2022-10-16T02:30:07;99508.11;;;5.90;100.00
57290;BME280;43523;53.022;-1.178;2022-10-16T02:31:14;99501.06;;;5.62;100.00
57290;BME280;43523;53.022;-1.178;2022-10-16T02:32:21;99512.51;;;5.50;100.00
57290;BME280;43523;53.022;-1.178;2022-10-16T02:33:27;99515.21;;;5.30;100.00
57290;BME280;43523;53.022;-1.178;2022-10-16T02:34:32;99542.91;;;5.67;100.00
57290;BME280;43523;53.022;-1.178;2022-10-16T02:35:36;99528.50;;;5.67;100.00
57290;BME280;43523;53.022;-1.178;2022-10-16T02:36:41;99537.29;;;5.55;100.00
57290;BME280;43523;53.022;-1.178;2022-10-16T02:37:45;99524.24;;;5.73;100.00
57290;BME280;43523;53.022;-1.178;2022-10-16T02:38:48;99520.49;;;5.41;100.00
57290;BME280;43523;53.022;-1.178;2022-10-16T02:39:52;99525.82;;;5.61;100.00
57290;BME280;43523;53.022;-1.178;2022-10-16T02:40:55;99539.96;;;5.32;100.00
57290;BME280;43523;53.022;-1.178;2022-10-16T02:41:58;99537.22;;;5.78;100.00
57290;BME280;43523;53.022;-1.178;2022-10-16T02:43:03;99549.75;;;5.52;100.00
57290;BME280;43523;53.022;-1.178;2022-10-16T02:44:06;99533.87;;;5.63;100.00
57290;BME280;43523;53.022;-1.178;2022-10-16T02:45:10;99534.32;;;5.60;100.00
57290;BME280;43523;53.022;-1.178;2022-10-16T02:46:13;99542.38;;;5.63;100.00
57290;BME280;43523;53.022;-1.178;2022-10-16T02:47:15;99537.16;;;5.13;100.00
57290;BME280;43523;53.022;-1.178;2022-10-16T02:48:18;99547.58;;;5.40;100.00
57290;BME280;43523;53.022;-1.178;2022-10-16T02:49:20;99551.58;;;5.18;100.00
57290;BME280;43523;53.022;-1.178;2022-10-16T02:50:23;99553.95;;;5.23;100.00
57290;BME280;43523;53.022;-1.178;2022-10-16T02:51:25;99558.06;;;5.67;100.00
57290;BME280;43523;53.022;-1.178;2022-10-16T02:52:28;99566.20;;;5.69;100.00
57290;BME280;43523;53.022;-1.178;2022-10-16T02:53:31;99560.87;;;5.61;100.00
57290;BME280;43523;53.022;-1.178;2022-10-16T02:54:34;99559.11;;;5.25;100.00
57290;BME280;43523;53.022;-1.178;2022-10-16T02:55:36;99564.77;;;5.20;100.00
57290;BME280;43523;53.022;-1.178;2022-10-16T02:56:39;99566.60;;;5.35;100.00
57290;BME280;43523;53.022;-1.178;2022-10-16T02:57:41;99564.15;;;5.33;100.00
57290;BME280;43523;53.022;-1.178;2022-10-16T02:58:43;99565.45;;;4.90;100.00
57290;BME280;43523;53.022;-1.178;2022-10-16T02:59:47;99572.66;;;4.80;100.00
57290;BME280;43523;53.022;-1.178;2022-10-16T03:00:49;99562.78;;;5.57;100.00
57290;BME280;43523;53.022;-1.178;2022-10-16T03:01:51;99565.63;;;5.44;100.00
57290;BME280;43523;53.022;-1.178;2022-10-16T03:02:54;99575.79;;;5.29;100.00
57290;BME280;43523;53.022;-1.178;2022-10-16T03:03:56;99573.43;;;5.09;100.00
57290;BME280;43523;53.022;-1.178;2022-10-16T03:04:59;99571.52;;;5.16;100.00
57290;BME280;43523;53.022;-1.178;2022-10-16T03:06:02;99572.72;;;5.07;100.00
57290;BME280;43523;53.022;-1.178;2022-10-16T03:07:04;99580.71;;;5.30;100.00
57290;BME280;43523;53.022;-1.178;2022-10-16T03:08:07;99582.36;;;4.90;100.00
57290;BME280;43523;53.022;-1.178;2022-10-16T03:09:10;99585.40;;;4.82;100.00
57290;BME280;43523;53.022;-1.178;2022-10-16T03:10:12;99588.36;;;4.85;100.00
57290;BME280;43523;53.022;-1.178;2022-10-16T03:11:14;99586.10;;;5.51;100.00
57290;BME280;43523;53.022;-1.178;2022-10-16T03:12:18;99587.07;;;5.05;100.00
57290;BME280;43523;53.022;-1.178;2022-10-16T03:13:20;99587.79;;;4.84;100.00
57290;BME280;43523;53.022;-1.178;2022-10-16T03:14:23;99588.38;;;4.84;100.00
57290;BME280;43523;53.022;-1.178;2022-10-16T03:15:26;99593.19;;;4.86;100.00
57290;BME280;43523;53.022;-1.178;2022-10-16T03:16:28;99597.73;;;4.62;100.00
57290;BME280;43523;53.022;-1.178;2022-10-16T03:17:32;99597.58;;;4.96;100.00
57290;BME280;43523;53.022;-1.178;2022-10-16T03:18:34;99600.60;;;5.01;100.00
57290;BME280;43523;53.022;-1.178;2022-10-16T03:19:38;99606.47;;;4.88;100.00
57290;BME280;43523;53.022;-1.178;2022-10-16T03:20:42;99612.55;;;4.80;100.00
57290;BME280;43523;53.022;-1.178;2022-10-16T03:21:44;99606.67;;;4.59;100.00
57290;BME280;43523;53.022;-1.178;2022-10-16T03:22:48;99608.18;;;4.44;100.00
57290;BME280;43523;53.022;-1.178;2022-10-16T03:23:50;99605.53;;;4.44;100.00
57290;BME280;43523;53.022;-1.178;2022-10-16T03:24:52;99601.80;;;4.44;100.00
57290;BME280;43523;53.022;-1.178;2022-10-16T03:25:54;99603.91;;;4.52;100.00
57290;BME280;43523;53.022;-1.178;2022-10-16T03:26:57;99610.10;;;4.41;100.00
57290;BME280;43523;53.022;-1.178;2022-10-16T03:28:00;99606.00;;;4.44;100.00
57290;BME280;43523;53.022;-1.178;2022-10-16T03:29:03;99602.44;;;4.37;100.00
57290;BME280;43523;53.022;-1.178;2022-10-16T03:30:07;99606.42;;;4.35;100.00
57290;BME280;43523;53.022;-1.178;2022-10-16T03:31:10;99610.70;;;4.49;100.00
57290;BME280;43523;53.022;-1.178;2022-10-16T03:32:12;99610.60;;;4.83;100.00
57290;BME280;43523;53.022;-1.178;2022-10-16T03:33:14;99618.26;;;4.82;100.00
57290;BME280;43523;53.022;-1.178;2022-10-16T03:34:17;99624.68;;;4.71;100.00
57290;BME280;43523;53.022;-1.178;2022-10-16T03:35:19;99634.71;;;4.92;100.00
57290;BME280;43523;53.022;-1.178;2022-10-16T03:36:22;99631.36;;;4.71;100.00
57290;BME280;43523;53.022;-1.178;2022-10-16T03:37:25;99626.27;;;4.01;100.00
57290;BME280;43523;53.022;-1.178;2022-10-16T03:38:30;99629.86;;;4.47;100.00
57290;BME280;43523;53.022;-1.178;2022-10-16T03:39:33;99637.34;;;3.96;100.00
57290;BME280;43523;53.022;-1.178;2022-10-16T03:40:35;99638.96;;;3.95;100.00
57290;BME280;43523;53.022;-1.178;2022-10-16T03:41:38;99639.28;;;3.99;100.00
57290;BME280;43523;53.022;-1.178;2022-10-16T03:42:42;99642.43;;;3.83;100.00
57290;BME280;43523;53.022;-1.178;2022-10-16T03:43:46;99648.58;;;4.20;100.00
57290;BME280;43523;53.022;-1.178;2022-10-16T03:44:49;99643.16;;;4.18;100.00
57290;BME280;43523;53.022;-1.178;2022-10-16T03:45:52;99645.49;;;4.72;100.00
57290;BME280;43523;53.022;-1.178;2022-10-16T03:46:54;99644.41;;;4.49;100.00
57290;BME280;43523;53.022;-1.178;2022-10-16T03:47:56;99649.68;;;4.14;100.00
57290;BME280;43523;53.022;-1.178;2022-10-16T03:48:59;99655.84;;;4.33;100.00
57290;BME280;43523;53.022;-1.178;2022-10-16T03:50:03;99653.91;;;4.42;100.00
57290;BME280;43523;53.022;-1.178;2022-10-16T03:51:05;99657.59;;;4.68;100.00
57290;BME280;43523;53.022;-1.178;2022-10-16T03:52:08;99656.27;;;4.84;100.00
57290;BME280;43523;53.022;-1.178;2022-10-16T03:53:11;99658.07;;;5.09;100.00
57290;BME280;43523;53.022;-1.178;2022-10-16T03:54:14;99658.83;;;4.36;100.00
57290;BME280;43523;53.022;-1.178;2022-10-16T03:55:16;99664.41;;;4.53;100.00
57290;BME280;43523;53.022;-1.178;2022-10-16T03:56:19;99669.36;;;4.83;100.00
57290;BME280;43523;53.022;-1.178;2022-10-16T03:57:21;99675.76;;;4.24;100.00
57290;BME280;43523;53.022;-1.178;2022-10-16T03:58:23;99677.83;;;4.58;100.00
57290;BME280;43523;53.022;-1.178;2022-10-16T03:59:26;99681.65;;;4.53;100.00
57290;BME280;43523;53.022;-1.178;2022-10-16T04:00:28;99684.99;;;4.29;100.00
57290;BME280;43523;53.022;-1.178;2022-10-16T04:01:30;99687.81;;;4.61;100.00
57290;BME280;43523;53.022;-1.178;2022-10-16T04:02:33;99691.10;;;4.71;100.00
57290;BME280;43523;53.022;-1.178;2022-10-16T04:03:35;99692.63;;;4.21;100.00
57290;BME280;43523;53.022;-1.178;2022-10-16T04:04:39;99697.02;;;4.52;100.00
57290;BME280;43523;53.022;-1.178;2022-10-16T04:05:41;99694.03;;;3.98;100.00
57290;BME280;43523;53.022;-1.178;2022-10-16T04:06:44;99705.52;;;4.45;100.00
57290;BME280;43523;53.022;-1.178;2022-10-16T04:07:47;99701.30;;;4.43;100.00
57290;BME280;43523;53.022;-1.178;2022-10-16T04:08:49;99702.69;;;4.58;100.00
57290;BME280;43523;53.022;-1.178;2022-10-16T04:09:52;99692.74;;;4.59;100.00
57290;BME280;43523;53.022;-1.178;2022-10-16T04:10:54;99692.26;;;4.14;100.00
57290;BME280;43523;53.022;-1.178;2022-10-16T04:11:57;99695.52;;;4.38;100.00
57290;BME280;43523;53.022;-1.178;2022-10-16T04:13:00;99700.50;;;4.57;100.00
57290;BME280;43523;53.022;-1.178;2022-10-16T04:14:02;99704.04;;;4.80;100.00
57290;BME280;43523;53.022;-1.178;2022-10-16T04:15:06;99708.13;;;4.78;100.00
57290;BME280;43523;53.022;-1.178;2022-10-16T04:16:08;99716.94;;;4.94;100.00
57290;BME280;43523;53.022;-1.178;2022-10-16T04:17:11;99720.95;;;4.74;100.00
57290;BME280;43523;53.022;-1.178;2022-10-16T04:18:14;99715.16;;;4.91;100.00
57290;BME280;43523;53.022;-1.178;2022-10-16T04:19:16;99718.58;;;4.92;100.00
57290;BME280;43523;53.022;-1.178;2022-10-16T04:20:19;99717.51;;;4.84;100.00
57290;BME280;43523;53.022;-1.178;2022-10-16T04:21:21;99718.06;;;4.87;100.00
57290;BME280;43523;53.022;-1.178;2022-10-16T04:22:24;99722.14;;;4.51;100.00
57290;BME280;43523;53.022;-1.178;2022-10-16T04:23:26;99726.23;;;4.61;100.00
57290;BME280;43523;53.022;-1.178;2022-10-16T04:24:29;99733.95;;;4.38;100.00
57290;BME280;43523;53.022;-1.178;2022-10-16T04:25:31;99736.54;;;4.49;100.00
57290;BME280;43523;53.022;-1.178;2022-10-16T04:26:34;99731.93;;;4.41;100.00
57290;BME280;43523;53.022;-1.178;2022-10-16T04:27:37;99736.13;;;4.62;100.00
57290;BME280;43523;53.022;-1.178;2022-10-16T04:28:40;99741.26;;;4.16;100.00
57290;BME280;43523;53.022;-1.178;2022-10-16T04:29:42;99744.95;;;4.36;100.00
57290;BME280;43523;53.022;-1.178;2022-10-16T04:30:44;99742.79;;;4.54;100.00
57290;BME280;43523;53.022;-1.178;2022-10-16T04:31:47;99749.30;;;4.25;100.00
57290;BME280;43523;53.022;-1.178;2022-10-16T04:32:50;99749.24;;;4.60;100.00
57290;BME280;43523;53.022;-1.178;2022-10-16T04:33:53;99746.84;;;4.46;100.00
57290;BME280;43523;53.022;-1.178;2022-10-16T04:34:55;99751.90;;;4.74;100.00
57290;BME280;43523;53.022;-1.178;2022-10-16T04:35:59;99759.88;;;4.78;100.00
57290;BME280;43523;53.022;-1.178;2022-10-16T04:37:01;99754.70;;;4.55;100.00
57290;BME280;43523;53.022;-1.178;2022-10-16T04:38:03;99757.02;;;4.93;100.00
57290;BME280;43523;53.022;-1.178;2022-10-16T04:39:06;99764.25;;;4.64;100.00
57290;BME280;43523;53.022;-1.178;2022-10-16T04:40:09;99765.38;;;4.65;100.00
57290;BME280;43523;53.022;-1.178;2022-10-16T04:41:12;99767.77;;;4.47;100.00
57290;BME280;43523;53.022;-1.178;2022-10-16T04:42:14;99769.44;;;4.50;100.00
57290;BME280;43523;53.022;-1.178;2022-10-16T04:43:17;99782.11;;;4.40;100.00
57290;BME280;43523;53.022;-1.178;2022-10-16T04:44:19;99779.35;;;4.42;100.00
57290;BME280;43523;53.022;-1.178;2022-10-16T04:45:21;99781.35;;;4.39;100.00
57290;BME280;43523;53.022;-1.178;2022-10-16T04:46:24;99790.87;;;4.49;100.00
57290;BME280;43523;53.022;-1.178;2022-10-16T04:47:26;99786.15;;;4.49;100.00
57290;BME280;43523;53.022;-1.178;2022-10-16T04:48:29;99793.09;;;4.27;100.00
57290;BME280;43523;53.022;-1.178;2022-10-16T04:49:32;99795.12;;;4.59;100.00
57290;BME280;43523;53.022;-1.178;2022-10-16T04:50:35;99798.47;;;4.90;100.00
57290;BME280;43523;53.022;-1.178;2022-10-16T04:51:37;99798.93;;;4.83;100.00
57290;BME280;43523;53.022;-1.178;2022-10-16T04:52:40;99806.33;;;4.48;100.00
57290;BME280;43523;53.022;-1.178;2022-10-16T04:53:43;99798.92;;;4.59;100.00
57290;BME280;43523;53.022;-1.178;2022-10-16T04:54:46;99809.75;;;4.32;100.00
57290;BME280;43523;53.022;-1.178;2022-10-16T04:55:49;99809.05;;;4.16;100.00
57290;BME280;43523;53.022;-1.178;2022-10-16T04:56:51;99812.10;;;4.42;100.00
57290;BME280;43523;53.022;-1.178;2022-10-16T04:57:53;99804.19;;;4.55;100.00
57290;BME280;43523;53.022;-1.178;2022-10-16T04:58:56;99814.66;;;4.52;100.00
57290;BME280;43523;53.022;-1.178;2022-10-16T04:59:58;99816.16;;;4.74;100.00
57290;BME280;43523;53.022;-1.178;2022-10-16T05:01:01;99820.42;;;4.31;100.00
57290;BME280;43523;53.022;-1.178;2022-10-16T05:02:03;99818.82;;;4.45;100.00
57290;BME280;43523;53.022;-1.178;2022-10-16T05:03:06;99821.74;;;4.38;100.00
57290;BME280;43523;53.022;-1.178;2022-10-16T05:04:08;99822.20;;;4.37;100.00
57290;BME280;43523;53.022;-1.178;2022-10-16T05:05:10;99824.98;;;4.56;100.00
57290;BME280;43523;53.022;-1.178;2022-10-16T05:06:13;99831.08;;;4.99;100.00
57290;BME280;43523;53.022;-1.178;2022-10-16T05:07:16;99838.73;;;4.77;100.00
57290;BME280;43523;53.022;-1.178;2022-10-16T05:08:18;99841.59;;;4.51;100.00
57290;BME280;43523;53.022;-1.178;2022-10-16T05:09:20;99838.11;;;4.41;100.00
57290;BME280;43523;53.022;-1.178;2022-10-16T05:10:23;99840.77;;;4.29;100.00
57290;BME280;43523;53.022;-1.178;2022-10-16T05:11:25;99843.95;;;4.56;100.00
57290;BME280;43523;53.022;-1.178;2022-10-16T05:12:28;99847.94;;;4.15;100.00
57290;BME280;43523;53.022;-1.178;2022-10-16T05:13:30;99849.86;;;4.34;100.00
57290;BME280;43523;53.022;-1.178;2022-10-16T05:14:33;99859.54;;;4.59;100.00
57290;BME280;43523;53.022;-1.178;2022-10-16T05:15:35;99853.92;;;4.28;100.00
57290;BME280;43523;53.022;-1.178;2022-10-16T05:16:38;99860.81;;;4.28;100.00
57290;BME280;43523;53.022;-1.178;2022-10-16T05:17:41;99858.70;;;4.15;100.00
57290;BME280;43523;53.022;-1.178;2022-10-16T05:18:44;99863.95;;;4.37;100.00
57290;BME280;43523;53.022;-1.178;2022-10-16T05:19:47;99875.71;;;4.51;100.00
57290;BME280;43523;53.022;-1.178;2022-10-16T05:20:49;99870.19;;;4.12;100.00
57290;BME280;43523;53.022;-1.178;2022-10-16T05:21:52;99876.45;;;3.91;100.00
57290;BME280;43523;53.022;-1.178;2022-10-16T05:22:55;99877.01;;;4.15;100.00
57290;BME280;43523;53.022;-1.178;2022-10-16T05:23:58;99881.05;;;4.16;100.00
57290;BME280;43523;53.022;-1.178;2022-10-16T05:25:00;99881.45;;;4.47;100.00
57290;BME280;43523;53.022;-1.178;2022-10-16T05:26:02;99881.05;;;4.45;100.00
57290;BME280;43523;53.022;-1.178;2022-10-16T05:27:05;99882.55;;;4.16;100.00
57290;BME280;43523;53.022;-1.178;2022-10-16T05:28:07;99886.64;;;4.40;100.00
57290;BME280;43523;53.022;-1.178;2022-10-16T05:29:10;99885.77;;;4.30;100.00
57290;BME280;43523;53.022;-1.178;2022-10-16T05:30:12;99886.03;;;4.75;100.00
57290;BME280;43523;53.022;-1.178;2022-10-16T05:31:15;99887.45;;;3.97;100.00
57290;BME280;43523;53.022;-1.178;2022-10-16T05:32:18;99893.48;;;4.41;100.00
57290;BME280;43523;53.022;-1.178;2022-10-16T05:33:21;99901.26;;;4.21;100.00
57290;BME280;43523;53.022;-1.178;2022-10-16T05:34:24;99902.16;;;4.67;100.00
57290;BME280;43523;53.022;-1.178;2022-10-16T05:35:26;99904.45;;;4.24;100.00